sensor_id;sensor_type;location;lat;lon;timestamp;P1;durP1;ratioP1;P2;durP2;ratioP2
10269;SDS011;70826;50.930;5.334;2023-10-31T00:01:32;4.57;;;4.28;;
10269;SDS011;70826;50.930;5.334;2023-10-31T00:03:59;4.65;;;4.28;;
10269;SDS011;70826;50.930;5.334;2023-10-31T00:06:27;3.92;;;3.63;;
10269;SDS011;70826;50.930;5.334;2023-10-31T00:08:55;4.10;;;3.83;;
10269;SDS011;70826;50.930;5.334;2023-10-31T00:11:23;4.32;;;4.05;;
10269;SDS011;70826;50.930;5.334;2023-10-31T00:13:49;4.50;;;4.20;;
10269;SDS011;70826;50.930;5.334;2023-10-31T00:16:16;4.15;;;3.85;;
10269;SDS011;70826;50.930;5.334;2023-10-31T00:18:47;4.55;;;4.15;;
10269;SDS011;70826;50.930;5.334;2023-10-31T00:21:18;4.35;;;3.95;;
10269;SDS011;70826;50.930;5.334;2023-10-31T00:23:48;4.05;;;3.85;;
10269;SDS011;70826;50.930;5.334;2023-10-31T00:26:16;4.18;;;3.88;;
10269;SDS011;70826;50.930;5.334;2023-10-31T00:28:44;4.50;;;4.20;;
10269;SDS011;70826;50.930;5.334;2023-10-31T00:31:12;4.70;;;4.32;;
10269;SDS011;70826;50.930;5.334;2023-10-31T00:33:39;4.72;;;4.38;;
10269;SDS011;70826;50.930;5.334;2023-10-31T00:36:07;4.95;;;4.55;;
10269;SDS011;70826;50.930;5.334;2023-10-31T00:38:33;5.00;;;4.70;;
10269;SDS011;70826;50.930;5.334;2023-10-31T00:40:59;5.65;;;5.25;;
10269;SDS011;70826;50.930;5.334;2023-10-31T00:43:27;6.38;;;5.85;;
10269;SDS011;70826;50.930;5.334;2023-10-31T00:45:55;6.15;;;5.68;;
10269;SDS011;70826;50.930;5.334;2023-10-31T00:48:23;5.90;;;5.45;;
10269;SDS011;70826;50.930;5.334;2023-10-31T00:50:51;7.18;;;6.53;;
10269;SDS011;70826;50.930;5.334;2023-10-31T00:53:17;6.22;;;5.72;;
10269;SDS011;70826;50.930;5.334;2023-10-31T00:55:42;6.82;;;6.22;;
10269;SDS011;70826;50.930;5.334;2023-10-31T00:58:12;7.15;;;6.55;;
10269;SDS011;70826;50.930;5.334;2023-10-31T01:00:38;7.30;;;6.60;;
10269;SDS011;70826;50.930;5.334;2023-10-31T01:03:06;6.72;;;6.13;;
10269;SDS011;70826;50.930;5.334;2023-10-31T01:05:36;7.15;;;6.55;;
10269;SDS011;70826;50.930;5.334;2023-10-31T01:08:04;7.03;;;6.43;;
10269;SDS011;70826;50.930;5.334;2023-10-31T01:10:30;7.55;;;6.90;;
10269;SDS011;70826;50.930;5.334;2023-10-31T01:13:00;7.32;;;6.65;;
10269;SDS011;70826;50.930;5.334;2023-10-31T01:15:26;7.75;;;7.10;;
10269;SDS011;70826;50.930;5.334;2023-10-31T01:17:54;7.40;;;6.70;;
10269;SDS011;70826;50.930;5.334;2023-10-31T01:20:24;7.85;;;7.15;;
10269;SDS011;70826;50.930;5.334;2023-10-31T01:22:52;7.88;;;7.18;;
10269;SDS011;70826;50.930;5.334;2023-10-31T01:25:20;8.00;;;7.25;;
10269;SDS011;70826;50.930;5.334;2023-10-31T01:27:47;8.38;;;7.65;;
10269;SDS011;70826;50.930;5.334;2023-10-31T01:30:13;7.88;;;7.15;;
10269;SDS011;70826;50.930;5.334;2023-10-31T01:32:39;7.82;;;7.05;;
10269;SDS011;70826;50.930;5.334;2023-10-31T01:35:04;7.63;;;6.90;;
10269;SDS011;70826;50.930;5.334;2023-10-31T01:37:32;7.90;;;7.13;;
10269;SDS011;70826;50.930;5.334;2023-10-31T01:39:58;7.47;;;6.88;;
10269;SDS011;70826;50.930;5.334;2023-10-31T01:42:26;8.05;;;7.35;;
10269;SDS011;70826;50.930;5.334;2023-10-31T01:44:54;8.30;;;7.50;;
10269;SDS011;70826;50.930;5.334;2023-10-31T01:47:22;7.68;;;7.00;;
10269;SDS011;70826;50.930;5.334;2023-10-31T01:49:50;7.78;;;7.10;;
10269;SDS011;70826;50.930;5.334;2023-10-31T01:52:16;7.43;;;6.72;;
10269;SDS011;70826;50.930;5.334;2023-10-31T01:54:44;7.68;;;7.07;;
10269;SDS011;70826;50.930;5.334;2023-10-31T01:57:10;7.28;;;6.68;;
10269;SDS011;70826;50.930;5.334;2023-10-31T01:59:41;7.95;;;7.20;;
10269;SDS011;70826;50.930;5.334;2023-10-31T02:02:07;7.00;;;6.40;;
10269;SDS011;70826;50.930;5.334;2023-10-31T02:04:35;8.55;;;7.55;;
10269;SDS011;70826;50.930;5.334;2023-10-31T02:07:00;7.07;;;6.47;;
10269;SDS011;70826;50.930;5.334;2023-10-31T02:09:26;7.95;;;7.28;;
10269;SDS011;70826;50.930;5.334;2023-10-31T02:11:55;7.55;;;6.97;;
10269;SDS011;70826;50.930;5.334;2023-10-31T02:14:22;7.15;;;6.57;;
10269;SDS011;70826;50.930;5.334;2023-10-31T02:16:50;7.55;;;6.85;;
10269;SDS011;70826;50.930;5.334;2023-10-31T02:19:20;7.70;;;7.03;;
10269;SDS011;70826;50.930;5.334;2023-10-31T02:21:47;7.25;;;6.65;;
10269;SDS011;70826;50.930;5.334;2023-10-31T02:24:15;7.75;;;7.05;;
10269;SDS011;70826;50.930;5.334;2023-10-31T02:26:45;6.68;;;6.18;;
10269;SDS011;70826;50.930;5.334;2023-10-31T02:29:13;6.50;;;6.10;;
10269;SDS011;70826;50.930;5.334;2023-10-31T02:31:40;6.45;;;5.95;;
10269;SDS011;70826;50.930;5.334;2023-10-31T02:34:11;6.40;;;5.90;;
10269;SDS011;70826;50.930;5.334;2023-10-31T02:36:37;6.45;;;5.95;;
10269;SDS011;70826;50.930;5.334;2023-10-31T02:39:10;6.88;;;5.65;;
10269;SDS011;70826;50.930;5.334;2023-10-31T02:41:35;5.85;;;5.45;;
10269;SDS011;70826;50.930;5.334;2023-10-31T02:44:03;5.65;;;5.25;;
10269;SDS011;70826;50.930;5.334;2023-10-31T02:46:34;5.88;;;5.47;;
10269;SDS011;70826;50.930;5.334;2023-10-31T02:49:05;6.05;;;5.65;;
10269;SDS011;70826;50.930;5.334;2023-10-31T02:51:33;5.57;;;5.20;;
10269;SDS011;70826;50.930;5.334;2023-10-31T02:54:01;5.82;;;5.43;;
10269;SDS011;70826;50.930;5.334;2023-10-31T02:56:31;5.75;;;5.35;;
10269;SDS011;70826;50.930;5.334;2023-10-31T02:59:04;6.38;;;5.82;;
10269;SDS011;70826;50.930;5.334;2023-10-31T03:01:30;6.00;;;5.60;;
10269;SDS011;70826;50.930;5.334;2023-10-31T03:03:58;5.55;;;5.15;;
10269;SDS011;70826;50.930;5.334;2023-10-31T03:06:26;5.40;;;5.00;;
10269;SDS011;70826;50.930;5.334;2023-10-31T03:08:54;5.82;;;5.45;;
10269;SDS011;70826;50.930;5.334;2023-10-31T03:11:25;5.72;;;5.35;;
10269;SDS011;70826;50.930;5.334;2023-10-31T03:13:52;5.47;;;5.07;;
10269;SDS011;70826;50.930;5.334;2023-10-31T03:16:18;5.40;;;5.10;;
10269;SDS011;70826;50.930;5.334;2023-10-31T03:18:45;5.60;;;5.25;;
10269;SDS011;70826;50.930;5.334;2023-10-31T03:21:11;5.38;;;5.05;;
10269;SDS011;70826;50.930;5.334;2023-10-31T03:23:37;5.55;;;5.20;;
10269;SDS011;70826;50.930;5.334;2023-10-31T03:26:07;5.35;;;4.95;;
10269;SDS011;70826;50.930;5.334;2023-10-31T03:28:34;5.30;;;5.00;;
10269;SDS011;70826;50.930;5.334;2023-10-31T03:31:00;5.78;;;5.47;;
10269;SDS011;70826;50.930;5.334;2023-10-31T03:33:28;5.40;;;5.00;;
10269;SDS011;70826;50.930;5.334;2023-10-31T03:36:00;5.53;;;5.20;;
10269;SDS011;70826;50.930;5.334;2023-10-31T03:38:26;5.93;;;5.53;;
10269;SDS011;70826;50.930;5.334;2023-10-31T03:40:54;5.07;;;4.78;;
10269;SDS011;70826;50.930;5.334;2023-10-31T03:43:19;5.53;;;5.13;;
10269;SDS011;70826;50.930;5.334;2023-10-31T03:45:48;5.68;;;5.35;;
10269;SDS011;70826;50.930;5.334;2023-10-31T03:48:13;5.30;;;4.97;;
10269;SDS011;70826;50.930;5.334;2023-10-31T03:50:40;5.40;;;5.10;;
10269;SDS011;70826;50.930;5.334;2023-10-31T03:53:08;5.25;;;4.95;;
10269;SDS011;70826;50.930;5.334;2023-10-31T03:55:36;5.70;;;5.30;;
10269;SDS011;70826;50.930;5.334;2023-10-31T03:58:02;5.22;;;4.93;;
10269;SDS011;70826;50.930;5.334;2023-10-31T04:00:30;5.38;;;4.97;;
10269;SDS011;70826;50.930;5.334;2023-10-31T04:02:58;5.75;;;5.35;;
10269;SDS011;70826;50.930;5.334;2023-10-31T04:05:28;6.03;;;5.57;;
10269;SDS011;70826;50.930;5.334;2023-10-31T04:07:56;5.28;;;4.97;;
10269;SDS011;70826;50.930;5.334;2023-10-31T04:10:26;5.75;;;5.35;;
10269;SDS011;70826;50.930;5.334;2023-10-31T04:12:54;5.35;;;5.05;;
10269;SDS011;70826;50.930;5.334;2023-10-31T04:15:23;5.80;;;5.50;;
10269;SDS011;70826;50.930;5.334;2023-10-31T04:17:51;5.85;;;5.45;;
10269;SDS011;70826;50.930;5.334;2023-10-31T04:20:19;5.90;;;5.50;;
10269;SDS011;70826;50.930;5.334;2023-10-31T04:22:44;5.28;;;4.88;;
10269;SDS011;70826;50.930;5.334;2023-10-31T04:25:15;6.00;;;5.60;;
10269;SDS011;70826;50.930;5.334;2023-10-31T04:27:40;5.50;;;5.20;;
10269;SDS011;70826;50.930;5.334;2023-10-31T04:30:06;5.85;;;5.45;;
10269;SDS011;70826;50.930;5.334;2023-10-31T04:32:32;6.10;;;5.70;;
10269;SDS011;70826;50.930;5.334;2023-10-31T04:35:02;5.43;;;5.13;;
10269;SDS011;70826;50.930;5.334;2023-10-31T04:37:28;5.65;;;5.35;;
10269;SDS011;70826;50.930;5.334;2023-10-31T04:39:56;5.30;;;5.00;;
10269;SDS011;70826;50.930;5.334;2023-10-31T04:42:24;5.60;;;5.25;;
10269;SDS011;70826;50.930;5.334;2023-10-31T04:44:52;5.68;;;5.28;;
10269;SDS011;70826;50.930;5.334;2023-10-31T04:47:18;5.68;;;5.35;;
10269;SDS011;70826;50.930;5.334;2023-10-31T04:49:48;5.68;;;5.28;;
10269;SDS011;70826;50.930;5.334;2023-10-31T04:52:14;5.30;;;5.00;;
10269;SDS011;70826;50.930;5.334;2023-10-31T04:54:43;5.90;;;5.43;;
10269;SDS011;70826;50.930;5.334;2023-10-31T04:57:11;5.70;;;5.30;;
10269;SDS011;70826;50.930;5.334;2023-10-31T04:59:39;5.20;;;4.90;;
10269;SDS011;70826;50.930;5.334;2023-10-31T05:02:05;5.25;;;4.95;;
10269;SDS011;70826;50.930;5.334;2023-10-31T05:04:35;5.20;;;4.90;;
10269;SDS011;70826;50.930;5.334;2023-10-31T05:07:05;5.28;;;4.97;;
10269;SDS011;70826;50.930;5.334;2023-10-31T05:09:31;5.50;;;5.05;;
10269;SDS011;70826;50.930;5.334;2023-10-31T05:11:59;5.72;;;5.35;;
10269;SDS011;70826;50.930;5.334;2023-10-31T05:14:25;4.82;;;4.53;;
10269;SDS011;70826;50.930;5.334;2023-10-31T05:16:53;5.07;;;4.78;;
10269;SDS011;70826;50.930;5.334;2023-10-31T05:19:21;5.57;;;5.28;;
10269;SDS011;70826;50.930;5.334;2023-10-31T05:21:49;5.10;;;4.80;;
10269;SDS011;70826;50.930;5.334;2023-10-31T05:24:19;5.30;;;5.00;;
10269;SDS011;70826;50.930;5.334;2023-10-31T05:26:47;5.20;;;4.80;;
10269;SDS011;70826;50.930;5.334;2023-10-31T05:29:13;4.88;;;4.57;;
10269;SDS011;70826;50.930;5.334;2023-10-31T05:31:39;4.50;;;4.20;;
10269;SDS011;70826;50.930;5.334;2023-10-31T05:34:08;4.45;;;4.15;;
10269;SDS011;70826;50.930;5.334;2023-10-31T05:36:34;4.80;;;4.50;;
10269;SDS011;70826;50.930;5.334;2023-10-31T05:39:02;4.50;;;4.30;;
10269;SDS011;70826;50.930;5.334;2023-10-31T05:41:30;4.57;;;4.28;;
10269;SDS011;70826;50.930;5.334;2023-10-31T05:44:03;4.82;;;4.53;;
10269;SDS011;70826;50.930;5.334;2023-10-31T05:46:29;4.63;;;4.32;;
10269;SDS011;70826;50.930;5.334;2023-10-31T05:48:57;4.93;;;4.60;;
10269;SDS011;70826;50.930;5.334;2023-10-31T05:51:28;5.28;;;4.95;;
10269;SDS011;70826;50.930;5.334;2023-10-31T05:53:56;5.13;;;4.82;;
10269;SDS011;70826;50.930;5.334;2023-10-31T05:56:24;4.80;;;4.50;;
10269;SDS011;70826;50.930;5.334;2023-10-31T05:58:49;4.85;;;4.55;;
10269;SDS011;70826;50.930;5.334;2023-10-31T06:01:17;4.70;;;4.40;;
10269;SDS011;70826;50.930;5.334;2023-10-31T06:03:43;5.15;;;4.85;;
10269;SDS011;70826;50.930;5.334;2023-10-31T06:06:12;5.00;;;4.70;;
10269;SDS011;70826;50.930;5.334;2023-10-31T06:08:41;5.07;;;4.78;;
10269;SDS011;70826;50.930;5.334;2023-10-31T06:11:07;5.25;;;4.95;;
10269;SDS011;70826;50.930;5.334;2023-10-31T06:13:33;4.82;;;4.53;;
10269;SDS011;70826;50.930;5.334;2023-10-31T06:15:59;5.35;;;5.05;;
10269;SDS011;70826;50.930;5.334;2023-10-31T06:18:25;5.75;;;5.32;;
10269;SDS011;70826;50.930;5.334;2023-10-31T06:20:53;4.95;;;4.65;;
10269;SDS011;70826;50.930;5.334;2023-10-31T06:23:22;5.22;;;4.93;;
10269;SDS011;70826;50.930;5.334;2023-10-31T06:25:50;5.07;;;4.78;;
10269;SDS011;70826;50.930;5.334;2023-10-31T06:28:16;4.93;;;4.63;;
10269;SDS011;70826;50.930;5.334;2023-10-31T06:30:44;5.47;;;5.18;;
10269;SDS011;70826;50.930;5.334;2023-10-31T06:33:12;5.38;;;5.07;;
10269;SDS011;70826;50.930;5.334;2023-10-31T06:35:44;5.82;;;5.45;;
10269;SDS011;70826;50.930;5.334;2023-10-31T06:38:19;6.03;;;5.57;;
10269;SDS011;70826;50.930;5.334;2023-10-31T06:40:47;5.32;;;5.03;;
10269;SDS011;70826;50.930;5.334;2023-10-31T06:43:13;5.32;;;5.03;;
10269;SDS011;70826;50.930;5.334;2023-10-31T06:45:43;5.15;;;4.85;;
10269;SDS011;70826;50.930;5.334;2023-10-31T06:48:11;5.32;;;5.03;;
10269;SDS011;70826;50.930;5.334;2023-10-31T06:50:39;5.85;;;5.45;;
10269;SDS011;70826;50.930;5.334;2023-10-31T06:53:07;5.30;;;5.00;;
10269;SDS011;70826;50.930;5.334;2023-10-31T06:55:33;6.57;;;6.18;;
10269;SDS011;70826;50.930;5.334;2023-10-31T06:57:58;5.82;;;5.50;;
10269;SDS011;70826;50.930;5.334;2023-10-31T07:00:27;5.82;;;5.47;;
10269;SDS011;70826;50.930;5.334;2023-10-31T07:02:54;5.55;;;5.15;;
10269;SDS011;70826;50.930;5.334;2023-10-31T07:05:22;5.78;;;5.47;;
10269;SDS011;70826;50.930;5.334;2023-10-31T07:07:48;5.28;;;4.97;;
10269;SDS011;70826;50.930;5.334;2023-10-31T07:10:14;5.45;;;5.15;;
10269;SDS011;70826;50.930;5.334;2023-10-31T07:12:42;5.15;;;4.85;;
10269;SDS011;70826;50.930;5.334;2023-10-31T07:15:12;6.00;;;5.50;;
10269;SDS011;70826;50.930;5.334;2023-10-31T07:17:40;5.82;;;5.43;;
10269;SDS011;70826;50.930;5.334;2023-10-31T07:20:06;5.85;;;5.45;;
10269;SDS011;70826;50.930;5.334;2023-10-31T07:22:34;6.13;;;5.72;;
10269;SDS011;70826;50.930;5.334;2023-10-31T07:25:02;5.93;;;5.53;;
10269;SDS011;70826;50.930;5.334;2023-10-31T07:27:32;6.07;;;4.97;;
10269;SDS011;70826;50.930;5.334;2023-10-31T07:29:58;5.68;;;5.28;;
10269;SDS011;70826;50.930;5.334;2023-10-31T07:32:24;5.45;;;5.05;;
10269;SDS011;70826;50.930;5.334;2023-10-31T07:34:50;5.82;;;5.43;;
10269;SDS011;70826;50.930;5.334;2023-10-31T07:37:19;5.68;;;5.18;;
10269;SDS011;70826;50.930;5.334;2023-10-31T07:39:47;5.47;;;5.18;;
10269;SDS011;70826;50.930;5.334;2023-10-31T07:42:16;5.85;;;5.45;;
10269;SDS011;70826;50.930;5.334;2023-10-31T07:44:44;6.10;;;5.60;;
10269;SDS011;70826;50.930;5.334;2023-10-31T07:47:09;5.70;;;5.30;;
10269;SDS011;70826;50.930;5.334;2023-10-31T07:49:38;5.68;;;5.28;;
10269;SDS011;70826;50.930;5.334;2023-10-31T07:52:03;5.72;;;5.32;;
10269;SDS011;70826;50.930;5.334;2023-10-31T07:54:29;5.53;;;5.20;;
10269;SDS011;70826;50.930;5.334;2023-10-31T07:56:55;5.38;;;4.97;;
10269;SDS011;70826;50.930;5.334;2023-10-31T07:59:25;5.25;;;4.93;;
10269;SDS011;70826;50.930;5.334;2023-10-31T08:01:50;5.47;;;5.18;;
10269;SDS011;70826;50.930;5.334;2023-10-31T08:04:18;5.45;;;5.05;;
10269;SDS011;70826;50.930;5.334;2023-10-31T08:06:48;5.70;;;5.22;;
10269;SDS011;70826;50.930;5.334;2023-10-31T08:09:19;5.93;;;5.55;;
10269;SDS011;70826;50.930;5.334;2023-10-31T08:11:49;5.82;;;5.43;;
10269;SDS011;70826;50.930;5.334;2023-10-31T08:14:17;4.95;;;4.65;;
10269;SDS011;70826;50.930;5.334;2023-10-31T08:16:47;5.05;;;4.75;;
10269;SDS011;70826;50.930;5.334;2023-10-31T08:19:15;5.25;;;4.95;;
10269;SDS011;70826;50.930;5.334;2023-10-31T08:21:40;5.47;;;5.07;;
10269;SDS011;70826;50.930;5.334;2023-10-31T08:24:06;5.18;;;4.88;;
10269;SDS011;70826;50.930;5.334;2023-10-31T08:26:32;5.38;;;4.97;;
10269;SDS011;70826;50.930;5.334;2023-10-31T08:28:59;5.28;;;4.97;;
10269;SDS011;70826;50.930;5.334;2023-10-31T08:31:24;5.07;;;4.78;;
10269;SDS011;70826;50.930;5.334;2023-10-31T08:33:55;5.75;;;5.20;;
10269;SDS011;70826;50.930;5.334;2023-10-31T08:36:25;5.40;;;4.90;;
10269;SDS011;70826;50.930;5.334;2023-10-31T08:38:54;5.25;;;4.88;;
10269;SDS011;70826;50.930;5.334;2023-10-31T08:41:24;5.35;;;4.95;;
10269;SDS011;70826;50.930;5.334;2023-10-31T08:43:52;5.85;;;5.07;;
10269;SDS011;70826;50.930;5.334;2023-10-31T08:46:23;4.80;;;4.50;;
10269;SDS011;70826;50.930;5.334;2023-10-31T08:48:49;5.22;;;4.88;;
10269;SDS011;70826;50.930;5.334;2023-10-31T08:51:14;5.38;;;4.97;;
10269;SDS011;70826;50.930;5.334;2023-10-31T08:53:40;5.10;;;4.80;;
10269;SDS011;70826;50.930;5.334;2023-10-31T08:56:08;5.00;;;4.70;;
10269;SDS011;70826;50.930;5.334;2023-10-31T08:58:38;5.47;;;5.07;;
10269;SDS011;70826;50.930;5.334;2023-10-31T09:01:04;5.65;;;5.25;;
10269;SDS011;70826;50.930;5.334;2023-10-31T09:03:31;5.13;;;4.82;;
10269;SDS011;70826;50.930;5.334;2023-10-31T09:06:00;5.78;;;5.38;;
10269;SDS011;70826;50.930;5.334;2023-10-31T09:08:25;5.15;;;4.75;;
10269;SDS011;70826;50.930;5.334;2023-10-31T09:10:51;5.03;;;4.63;;
10269;SDS011;70826;50.930;5.334;2023-10-31T09:13:17;5.28;;;4.88;;
10269;SDS011;70826;50.930;5.334;2023-10-31T09:15:44;5.18;;;4.85;;
10269;SDS011;70826;50.930;5.334;2023-10-31T09:18:13;5.25;;;4.95;;
10269;SDS011;70826;50.930;5.334;2023-10-31T09:20:39;5.47;;;5.10;;
10269;SDS011;70826;50.930;5.334;2023-10-31T09:23:06;5.22;;;4.82;;
10269;SDS011;70826;50.930;5.334;2023-10-31T09:25:34;5.53;;;5.13;;
10269;SDS011;70826;50.930;5.334;2023-10-31T09:28:07;5.07;;;4.68;;
10269;SDS011;70826;50.930;5.334;2023-10-31T09:30:34;5.50;;;5.10;;
10269;SDS011;70826;50.930;5.334;2023-10-31T09:33:02;4.90;;;4.60;;
10269;SDS011;70826;50.930;5.334;2023-10-31T09:35:33;5.43;;;5.03;;
10269;SDS011;70826;50.930;5.334;2023-10-31T09:38:00;5.45;;;5.00;;
10269;SDS011;70826;50.930;5.334;2023-10-31T09:40:29;5.22;;;4.93;;
10269;SDS011;70826;50.930;5.334;2023-10-31T09:42:54;5.32;;;4.97;;
10269;SDS011;70826;50.930;5.334;2023-10-31T09:45:22;5.30;;;4.97;;
10269;SDS011;70826;50.930;5.334;2023-10-31T09:47:48;5.07;;;4.65;;
10269;SDS011;70826;50.930;5.334;2023-10-31T09:50:14;5.38;;;4.95;;
10269;SDS011;70826;50.930;5.334;2023-10-31T09:52:42;4.93;;;4.63;;
10269;SDS011;70826;50.930;5.334;2023-10-31T09:55:10;5.15;;;4.75;;
10269;SDS011;70826;50.930;5.334;2023-10-31T09:57:36;5.20;;;4.80;;
10269;SDS011;70826;50.930;5.334;2023-10-31T10:00:02;5.22;;;4.82;;
10269;SDS011;70826;50.930;5.334;2023-10-31T10:02:28;5.20;;;4.80;;
10269;SDS011;70826;50.930;5.334;2023-10-31T10:04:55;5.50;;;4.65;;
10269;SDS011;70826;50.930;5.334;2023-10-31T10:07:23;4.80;;;4.40;;
10269;SDS011;70826;50.930;5.334;2023-10-31T10:09:55;4.60;;;4.28;;
10269;SDS011;70826;50.930;5.334;2023-10-31T10:12:26;4.75;;;4.45;;
10269;SDS011;70826;50.930;5.334;2023-10-31T10:14:54;4.47;;;4.18;;
10269;SDS011;70826;50.930;5.334;2023-10-31T10:17:24;4.60;;;4.30;;
10269;SDS011;70826;50.930;5.334;2023-10-31T10:20:09;4.68;;;4.35;;
10269;SDS011;70826;50.930;5.334;2023-10-31T10:22:41;4.80;;;4.50;;
10269;SDS011;70826;50.930;5.334;2023-10-31T10:25:27;4.78;;;4.47;;
10269;SDS011;70826;50.930;5.334;2023-10-31T10:27:57;4.68;;;4.28;;
10269;SDS011;70826;50.930;5.334;2023-10-31T10:30:27;4.15;;;3.85;;
10269;SDS011;70826;50.930;5.334;2023-10-31T10:32:57;4.07;;;3.88;;
10269;SDS011;70826;50.930;5.334;2023-10-31T10:35:28;4.50;;;4.20;;
10269;SDS011;70826;50.930;5.334;2023-10-31T10:37:54;4.20;;;4.00;;
10269;SDS011;70826;50.930;5.334;2023-10-31T10:40:25;4.47;;;4.18;;
10269;SDS011;70826;50.930;5.334;2023-10-31T10:42:54;4.43;;;4.03;;
10269;SDS011;70826;50.930;5.334;2023-10-31T10:45:25;4.40;;;4.07;;
10269;SDS011;70826;50.930;5.334;2023-10-31T10:47:55;4.53;;;4.22;;
10269;SDS011;70826;50.930;5.334;2023-10-31T10:50:29;4.45;;;4.15;;
10269;SDS011;70826;50.930;5.334;2023-10-31T10:53:49;4.32;;;4.03;;
10269;SDS011;70826;50.930;5.334;2023-10-31T10:56:02;4.43;;;4.13;;
10269;SDS011;70826;50.930;5.334;2023-10-31T10:58:36;4.45;;;4.15;;
10269;SDS011;70826;50.930;5.334;2023-10-31T11:01:09;4.30;;;4.00;;
10269;SDS011;70826;50.930;5.334;2023-10-31T11:03:38;4.15;;;3.95;;
10269;SDS011;70826;50.930;5.334;2023-10-31T11:06:05;4.43;;;4.03;;
10269;SDS011;70826;50.930;5.334;2023-10-31T11:08:33;4.18;;;3.88;;
10269;SDS011;70826;50.930;5.334;2023-10-31T11:11:05;4.30;;;3.90;;
10269;SDS011;70826;50.930;5.334;2023-10-31T11:13:36;4.53;;;4.13;;
10269;SDS011;70826;50.930;5.334;2023-10-31T11:16:05;4.05;;;3.75;;
10269;SDS011;70826;50.930;5.334;2023-10-31T11:18:38;4.07;;;3.83;;
10269;SDS011;70826;50.930;5.334;2023-10-31T11:21:05;4.90;;;4.05;;
10269;SDS011;70826;50.930;5.334;2023-10-31T11:23:30;4.68;;;4.38;;
10269;SDS011;70826;50.930;5.334;2023-10-31T11:26:01;4.40;;;4.10;;
10269;SDS011;70826;50.930;5.334;2023-10-31T11:28:35;4.30;;;4.00;;
10269;SDS011;70826;50.930;5.334;2023-10-31T11:31:03;4.38;;;4.07;;
10269;SDS011;70826;50.930;5.334;2023-10-31T11:33:33;4.82;;;4.15;;
10269;SDS011;70826;50.930;5.334;2023-10-31T11:36:07;4.30;;;4.00;;
10269;SDS011;70826;50.930;5.334;2023-10-31T11:38:40;4.25;;;3.95;;
10269;SDS011;70826;50.930;5.334;2023-10-31T11:41:10;4.72;;;4.43;;
10269;SDS011;70826;50.930;5.334;2023-10-31T11:46:28;4.85;;;4.55;;
10269;SDS011;70826;50.930;5.334;2023-10-31T11:48:55;4.10;;;3.80;;
10269;SDS011;70826;50.930;5.334;2023-10-31T11:51:21;4.70;;;4.30;;
10269;SDS011;70826;50.930;5.334;2023-10-31T11:53:50;4.50;;;4.20;;
10269;SDS011;70826;50.930;5.334;2023-10-31T11:56:20;4.50;;;4.20;;
10269;SDS011;70826;50.930;5.334;2023-10-31T11:58:58;4.22;;;4.00;;
10269;SDS011;70826;50.930;5.334;2023-10-31T12:01:27;4.63;;;4.22;;
10269;SDS011;70826;50.930;5.334;2023-10-31T12:03:53;4.53;;;4.25;;
10269;SDS011;70826;50.930;5.334;2023-10-31T12:06:24;4.47;;;4.22;;
10269;SDS011;70826;50.930;5.334;2023-10-31T12:08:53;4.65;;;4.30;;
10269;SDS011;70826;50.930;5.334;2023-10-31T12:11:23;4.75;;;4.45;;
10269;SDS011;70826;50.930;5.334;2023-10-31T12:16:17;4.80;;;4.28;;
10269;SDS011;70826;50.930;5.334;2023-10-31T12:18:43;4.50;;;4.20;;
10269;SDS011;70826;50.930;5.334;2023-10-31T12:21:09;4.47;;;4.07;;
10269;SDS011;70826;50.930;5.334;2023-10-31T12:23:37;4.68;;;4.28;;
10269;SDS011;70826;50.930;5.334;2023-10-31T12:26:05;4.43;;;4.00;;
10269;SDS011;70826;50.930;5.334;2023-10-31T12:28:35;6.35;;;4.45;;
10269;SDS011;70826;50.930;5.334;2023-10-31T12:31:03;4.00;;;3.70;;
10269;SDS011;70826;50.930;5.334;2023-10-31T12:33:31;4.90;;;4.50;;
10269;SDS011;70826;50.930;5.334;2023-10-31T12:35:57;4.57;;;4.28;;
10269;SDS011;70826;50.930;5.334;2023-10-31T12:38:24;4.40;;;4.10;;
10269;SDS011;70826;50.930;5.334;2023-10-31T12:40:53;5.10;;;4.63;;
10269;SDS011;70826;50.930;5.334;2023-10-31T12:43:20;6.55;;;4.38;;
10269;SDS011;70826;50.930;5.334;2023-10-31T12:45:46;5.40;;;4.45;;
10269;SDS011;70826;50.930;5.334;2023-10-31T12:48:12;6.00;;;4.43;;
10269;SDS011;70826;50.930;5.334;2023-10-31T12:50:38;9.93;;;4.53;;
10269;SDS011;70826;50.930;5.334;2023-10-31T12:53:07;5.28;;;4.88;;
10269;SDS011;70826;50.930;5.334;2023-10-31T12:55:40;5.47;;;4.85;;
10269;SDS011;70826;50.930;5.334;2023-10-31T12:58:09;13.75;;;6.35;;
10269;SDS011;70826;50.930;5.334;2023-10-31T13:00:45;51.92;;;9.90;;
10269;SDS011;70826;50.930;5.334;2023-10-31T13:03:11;30.58;;;9.10;;
10269;SDS011;70826;50.930;5.334;2023-10-31T13:05:37;27.48;;;8.02;;
10269;SDS011;70826;50.930;5.334;2023-10-31T13:08:10;15.63;;;7.57;;
10269;SDS011;70826;50.930;5.334;2023-10-31T13:10:43;14.43;;;6.63;;
10269;SDS011;70826;50.930;5.334;2023-10-31T13:13:12;19.20;;;6.28;;
10269;SDS011;70826;50.930;5.334;2023-10-31T13:15:42;20.35;;;6.68;;
10269;SDS011;70826;50.930;5.334;2023-10-31T13:18:07;13.20;;;6.88;;
10269;SDS011;70826;50.930;5.334;2023-10-31T13:20:38;12.60;;;6.40;;
10269;SDS011;70826;50.930;5.334;2023-10-31T13:23:06;10.80;;;6.40;;
10269;SDS011;70826;50.930;5.334;2023-10-31T13:25:32;11.27;;;6.38;;
10269;SDS011;70826;50.930;5.334;2023-10-31T13:27:57;10.63;;;5.95;;
10269;SDS011;70826;50.930;5.334;2023-10-31T13:30:26;10.18;;;5.90;;
10269;SDS011;70826;50.930;5.334;2023-10-31T13:32:56;8.73;;;6.03;;
10269;SDS011;70826;50.930;5.334;2023-10-31T13:35:24;7.30;;;5.85;;
10269;SDS011;70826;50.930;5.334;2023-10-31T13:37:54;7.70;;;5.28;;
10269;SDS011;70826;50.930;5.334;2023-10-31T13:40:22;8.20;;;5.40;;
10269;SDS011;70826;50.930;5.334;2023-10-31T13:42:50;6.00;;;4.90;;
10269;SDS011;70826;50.930;5.334;2023-10-31T13:45:16;6.85;;;5.43;;
10269;SDS011;70826;50.930;5.334;2023-10-31T13:47:41;6.35;;;5.25;;
10269;SDS011;70826;50.930;5.334;2023-10-31T13:50:14;8.18;;;4.93;;
10269;SDS011;70826;50.930;5.334;2023-10-31T13:52:44;5.78;;;4.93;;
10269;SDS011;70826;50.930;5.334;2023-10-31T13:55:10;5.97;;;5.00;;
10269;SDS011;70826;50.930;5.334;2023-10-31T13:57:37;6.13;;;4.63;;
10269;SDS011;70826;50.930;5.334;2023-10-31T14:00:06;5.35;;;4.85;;
10269;SDS011;70826;50.930;5.334;2023-10-31T14:02:33;4.93;;;4.45;;
10269;SDS011;70826;50.930;5.334;2023-10-31T14:05:01;5.38;;;4.60;;
10269;SDS011;70826;50.930;5.334;2023-10-31T14:07:30;4.97;;;4.57;;
10269;SDS011;70826;50.930;5.334;2023-10-31T14:09:55;6.28;;;4.95;;
10269;SDS011;70826;50.930;5.334;2023-10-31T14:12:22;5.22;;;4.82;;
10269;SDS011;70826;50.930;5.334;2023-10-31T14:14:53;4.97;;;4.57;;
10269;SDS011;70826;50.930;5.334;2023-10-31T14:17:21;5.00;;;4.53;;
10269;SDS011;70826;50.930;5.334;2023-10-31T14:19:48;5.13;;;4.68;;
10269;SDS011;70826;50.930;5.334;2023-10-31T14:22:18;4.85;;;4.45;;
10269;SDS011;70826;50.930;5.334;2023-10-31T14:24:43;5.50;;;4.63;;
10269;SDS011;70826;50.930;5.334;2023-10-31T14:27:11;4.88;;;4.38;;
10269;SDS011;70826;50.930;5.334;2023-10-31T14:29:37;4.90;;;4.50;;
10269;SDS011;70826;50.930;5.334;2023-10-31T14:32:06;5.43;;;4.95;;
10269;SDS011;70826;50.930;5.334;2023-10-31T14:34:33;5.32;;;4.78;;
10269;SDS011;70826;50.930;5.334;2023-10-31T14:36:59;5.18;;;4.70;;
10269;SDS011;70826;50.930;5.334;2023-10-31T14:39:27;5.10;;;4.72;;
10269;SDS011;70826;50.930;5.334;2023-10-31T14:41:52;5.72;;;5.22;;
10269;SDS011;70826;50.930;5.334;2023-10-31T14:44:20;5.55;;;5.18;;
10269;SDS011;70826;50.930;5.334;2023-10-31T14:46:46;5.72;;;5.32;;
10269;SDS011;70826;50.930;5.334;2023-10-31T14:49:12;5.60;;;5.20;;
10269;SDS011;70826;50.930;5.334;2023-10-31T14:51:37;5.68;;;5.20;;
10269;SDS011;70826;50.930;5.334;2023-10-31T14:54:12;5.13;;;4.72;;
10269;SDS011;70826;50.930;5.334;2023-10-31T14:56:40;5.80;;;5.45;;
10269;SDS011;70826;50.930;5.334;2023-10-31T14:59:09;5.65;;;5.20;;